sensor_id;sensor_type;location;lat;lon;timestamp;P1;durP1;ratioP1;P2;durP2;ratioP2
47353;SDS011;50657;48.830;2.282;2022-12-18T00:01:14;5.07;;;3.42;;
47353;SDS011;50657;48.830;2.282;2022-12-18T00:03:44;3.95;;;3.55;;
47353;SDS011;50657;48.830;2.282;2022-12-18T00:06:13;5.93;;;3.42;;
47353;SDS011;50657;48.830;2.282;2022-12-18T00:08:41;3.83;;;3.13;;
47353;SDS011;50657;48.830;2.282;2022-12-18T00:11:10;3.80;;;2.95;;
47353;SDS011;50657;48.830;2.282;2022-12-18T00:13:39;5.25;;;3.50;;
47353;SDS011;50657;48.830;2.282;2022-12-18T00:16:07;4.30;;;3.72;;
47353;SDS011;50657;48.830;2.282;2022-12-18T00:18:36;4.53;;;3.03;;
47353;SDS011;50657;48.830;2.282;2022-12-18T00:21:04;4.80;;;2.83;;
47353;SDS011;50657;48.830;2.282;2022-12-18T00:23:33;6.28;;;3.22;;
47353;SDS011;50657;48.830;2.282;2022-12-18T00:26:02;5.55;;;3.28;;
47353;SDS011;50657;48.830;2.282;2022-12-18T00:28:31;7.10;;;3.72;;
47353;SDS011;50657;48.830;2.282;2022-12-18T00:31:00;4.90;;;3.03;;
47353;SDS011;50657;48.830;2.282;2022-12-18T00:33:27;5.70;;;4.03;;
47353;SDS011;50657;48.830;2.282;2022-12-18T00:35:54;3.33;;;2.65;;
47353;SDS011;50657;48.830;2.282;2022-12-18T00:38:21;3.50;;;3.20;;
47353;SDS011;50657;48.830;2.282;2022-12-18T00:40:49;6.10;;;3.85;;
47353;SDS011;50657;48.830;2.282;2022-12-18T00:43:16;5.07;;;2.97;;
47353;SDS011;50657;48.830;2.282;2022-12-18T00:45:43;4.60;;;3.83;;
47353;SDS011;50657;48.830;2.282;2022-12-18T00:48:10;4.38;;;3.10;;
47353;SDS011;50657;48.830;2.282;2022-12-18T00:50:37;5.85;;;3.78;;
47353;SDS011;50657;48.830;2.282;2022-12-18T00:53:04;4.07;;;2.75;;
47353;SDS011;50657;48.830;2.282;2022-12-18T00:55:31;4.45;;;3.83;;
47353;SDS011;50657;48.830;2.282;2022-12-18T00:57:59;3.38;;;2.72;;
47353;SDS011;50657;48.830;2.282;2022-12-18T01:00:27;5.28;;;4.47;;
47353;SDS011;50657;48.830;2.282;2022-12-18T01:02:55;6.07;;;3.47;;
47353;SDS011;50657;48.830;2.282;2022-12-18T01:05:23;3.35;;;2.83;;
47353;SDS011;50657;48.830;2.282;2022-12-18T01:07:51;3.85;;;3.38;;
47353;SDS011;50657;48.830;2.282;2022-12-18T01:10:19;4.40;;;3.13;;
47353;SDS011;50657;48.830;2.282;2022-12-18T01:12:46;4.72;;;3.45;;
47353;SDS011;50657;48.830;2.282;2022-12-18T01:15:13;3.85;;;3.17;;
47353;SDS011;50657;48.830;2.282;2022-12-18T01:17:42;4.75;;;2.42;;
47353;SDS011;50657;48.830;2.282;2022-12-18T01:20:11;4.15;;;3.67;;
47353;SDS011;50657;48.830;2.282;2022-12-18T01:22:39;5.53;;;3.03;;
47353;SDS011;50657;48.830;2.282;2022-12-18T01:25:06;5.28;;;3.03;;
47353;SDS011;50657;48.830;2.282;2022-12-18T01:27:34;3.38;;;2.75;;
47353;SDS011;50657;48.830;2.282;2022-12-18T01:30:03;6.90;;;3.53;;
47353;SDS011;50657;48.830;2.282;2022-12-18T01:32:31;6.25;;;4.20;;
47353;SDS011;50657;48.830;2.282;2022-12-18T01:34:58;6.82;;;3.42;;
47353;SDS011;50657;48.830;2.282;2022-12-18T01:37:27;3.38;;;2.55;;
47353;SDS011;50657;48.830;2.282;2022-12-18T01:39:55;2.63;;;2.42;;
47353;SDS011;50657;48.830;2.282;2022-12-18T01:42:22;5.15;;;2.80;;
47353;SDS011;50657;48.830;2.282;2022-12-18T01:47:49;3.25;;;2.67;;
47353;SDS011;50657;48.830;2.282;2022-12-18T01:50:19;5.30;;;3.35;;
47353;SDS011;50657;48.830;2.282;2022-12-18T01:52:50;3.20;;;2.75;;
47353;SDS011;50657;48.830;2.282;2022-12-18T01:55:20;6.60;;;3.38;;
47353;SDS011;50657;48.830;2.282;2022-12-18T01:57:50;3.65;;;2.30;;
47353;SDS011;50657;48.830;2.282;2022-12-18T02:00:20;3.97;;;2.47;;
47353;SDS011;50657;48.830;2.282;2022-12-18T02:02:50;4.18;;;3.20;;
47353;SDS011;50657;48.830;2.282;2022-12-18T02:05:20;3.97;;;2.70;;
47353;SDS011;50657;48.830;2.282;2022-12-18T02:07:59;5.63;;;2.13;;
47353;SDS011;50657;48.830;2.282;2022-12-18T02:10:35;3.00;;;2.38;;
47353;SDS011;50657;48.830;2.282;2022-12-18T02:13:12;2.85;;;2.65;;
47353;SDS011;50657;48.830;2.282;2022-12-18T02:15:45;5.00;;;3.08;;
47353;SDS011;50657;48.830;2.282;2022-12-18T02:18:20;3.45;;;2.90;;
47353;SDS011;50657;48.830;2.282;2022-12-18T02:20:52;5.18;;;2.75;;
47353;SDS011;50657;48.830;2.282;2022-12-18T02:23:32;2.83;;;2.33;;
47353;SDS011;50657;48.830;2.282;2022-12-18T02:26:15;4.35;;;3.05;;
47353;SDS011;50657;48.830;2.282;2022-12-18T02:28:49;5.18;;;3.30;;
47353;SDS011;50657;48.830;2.282;2022-12-18T02:31:21;3.08;;;2.10;;
47353;SDS011;50657;48.830;2.282;2022-12-18T02:33:52;5.30;;;3.35;;
47353;SDS011;50657;48.830;2.282;2022-12-18T02:36:22;3.15;;;2.70;;
47353;SDS011;50657;48.830;2.282;2022-12-18T02:38:53;5.70;;;3.03;;
47353;SDS011;50657;48.830;2.282;2022-12-18T02:41:24;3.88;;;2.70;;
47353;SDS011;50657;48.830;2.282;2022-12-18T02:43:53;3.88;;;3.47;;
47353;SDS011;50657;48.830;2.282;2022-12-18T02:46:25;4.30;;;2.72;;
47353;SDS011;50657;48.830;2.282;2022-12-18T02:49:01;2.10;;;1.98;;
47353;SDS011;50657;48.830;2.282;2022-12-18T02:51:39;4.00;;;2.47;;
47353;SDS011;50657;48.830;2.282;2022-12-18T02:56:49;3.80;;;2.58;;
47353;SDS011;50657;48.830;2.282;2022-12-18T02:59:19;3.00;;;2.33;;
47353;SDS011;50657;48.830;2.282;2022-12-18T03:01:55;5.85;;;3.08;;
47353;SDS011;50657;48.830;2.282;2022-12-18T03:04:29;4.40;;;1.98;;
47353;SDS011;50657;48.830;2.282;2022-12-18T03:07:05;3.45;;;2.05;;
47353;SDS011;50657;48.830;2.282;2022-12-18T03:09:36;3.17;;;2.85;;
47353;SDS011;50657;48.830;2.282;2022-12-18T03:12:10;4.60;;;2.88;;
47353;SDS011;50657;48.830;2.282;2022-12-18T03:14:54;4.13;;;2.65;;
47353;SDS011;50657;48.830;2.282;2022-12-18T03:17:26;4.15;;;3.03;;
47353;SDS011;50657;48.830;2.282;2022-12-18T03:19:56;4.30;;;3.45;;
47353;SDS011;50657;48.830;2.282;2022-12-18T03:22:30;4.43;;;2.10;;
47353;SDS011;50657;48.830;2.282;2022-12-18T03:25:02;2.78;;;2.08;;
47353;SDS011;50657;48.830;2.282;2022-12-18T03:27:34;2.33;;;1.85;;
47353;SDS011;50657;48.830;2.282;2022-12-18T03:30:08;4.72;;;3.25;;
47353;SDS011;50657;48.830;2.282;2022-12-18T03:32:39;5.20;;;2.35;;
47353;SDS011;50657;48.830;2.282;2022-12-18T03:35:09;3.28;;;2.72;;
47353;SDS011;50657;48.830;2.282;2022-12-18T03:37:39;3.78;;;2.58;;
47353;SDS011;50657;48.830;2.282;2022-12-18T03:40:07;3.53;;;3.25;;
47353;SDS011;50657;48.830;2.282;2022-12-18T03:42:39;3.78;;;2.80;;
47353;SDS011;50657;48.830;2.282;2022-12-18T03:45:13;4.55;;;2.97;;
47353;SDS011;50657;48.830;2.282;2022-12-18T03:47:52;4.80;;;3.13;;
47353;SDS011;50657;48.830;2.282;2022-12-18T03:50:32;3.20;;;2.92;;
47353;SDS011;50657;48.830;2.282;2022-12-18T03:53:07;4.00;;;2.95;;
47353;SDS011;50657;48.830;2.282;2022-12-18T03:55:44;2.67;;;2.03;;
47353;SDS011;50657;48.830;2.282;2022-12-18T03:58:15;4.15;;;2.67;;
47353;SDS011;50657;48.830;2.282;2022-12-18T04:00:53;4.40;;;3.20;;
47353;SDS011;50657;48.830;2.282;2022-12-18T04:03:23;3.60;;;3.10;;
47353;SDS011;50657;48.830;2.282;2022-12-18T04:05:53;3.78;;;2.80;;
47353;SDS011;50657;48.830;2.282;2022-12-18T04:08:22;4.32;;;2.42;;
47353;SDS011;50657;48.830;2.282;2022-12-18T04:10:59;2.53;;;2.25;;
47353;SDS011;50657;48.830;2.282;2022-12-18T04:13:31;5.13;;;3.25;;
47353;SDS011;50657;48.830;2.282;2022-12-18T04:16:02;4.68;;;3.65;;
47353;SDS011;50657;48.830;2.282;2022-12-18T04:18:30;4.68;;;2.85;;
47353;SDS011;50657;48.830;2.282;2022-12-18T04:20:59;3.10;;;2.45;;
47353;SDS011;50657;48.830;2.282;2022-12-18T04:23:26;5.60;;;2.88;;
47353;SDS011;50657;48.830;2.282;2022-12-18T04:25:56;4.13;;;2.88;;
47353;SDS011;50657;48.830;2.282;2022-12-18T04:28:41;4.90;;;2.55;;
47353;SDS011;50657;48.830;2.282;2022-12-18T04:31:08;3.60;;;2.28;;
47353;SDS011;50657;48.830;2.282;2022-12-18T04:33:36;4.68;;;2.70;;
47353;SDS011;50657;48.830;2.282;2022-12-18T04:36:03;3.58;;;2.30;;
47353;SDS011;50657;48.830;2.282;2022-12-18T04:38:31;6.97;;;3.38;;
47353;SDS011;50657;48.830;2.282;2022-12-18T04:41:04;2.95;;;2.45;;
47353;SDS011;50657;48.830;2.282;2022-12-18T04:43:32;3.22;;;2.42;;
47353;SDS011;50657;48.830;2.282;2022-12-18T04:46:04;4.63;;;3.70;;
47353;SDS011;50657;48.830;2.282;2022-12-18T04:48:33;5.78;;;2.20;;
47353;SDS011;50657;48.830;2.282;2022-12-18T04:51:01;3.78;;;3.03;;
47353;SDS011;50657;48.830;2.282;2022-12-18T04:53:28;4.40;;;2.75;;
47353;SDS011;50657;48.830;2.282;2022-12-18T04:56:03;3.45;;;2.30;;
47353;SDS011;50657;48.830;2.282;2022-12-18T04:58:31;3.63;;;2.47;;
47353;SDS011;50657;48.830;2.282;2022-12-18T05:00:58;4.72;;;2.65;;
47353;SDS011;50657;48.830;2.282;2022-12-18T05:03:26;2.88;;;2.30;;
47353;SDS011;50657;48.830;2.282;2022-12-18T05:05:53;4.47;;;2.55;;
47353;SDS011;50657;48.830;2.282;2022-12-18T05:08:21;2.72;;;2.53;;
47353;SDS011;50657;48.830;2.282;2022-12-18T05:10:48;4.28;;;2.47;;
47353;SDS011;50657;48.830;2.282;2022-12-18T05:13:15;3.88;;;3.08;;
47353;SDS011;50657;48.830;2.282;2022-12-18T05:15:42;4.82;;;2.90;;
47353;SDS011;50657;48.830;2.282;2022-12-18T05:18:17;4.38;;;2.65;;
47353;SDS011;50657;48.830;2.282;2022-12-18T05:20:45;4.72;;;2.40;;
47353;SDS011;50657;48.830;2.282;2022-12-18T05:23:13;2.97;;;2.60;;
47353;SDS011;50657;48.830;2.282;2022-12-18T05:25:40;3.17;;;2.67;;
47353;SDS011;50657;48.830;2.282;2022-12-18T05:28:07;3.13;;;2.80;;
47353;SDS011;50657;48.830;2.282;2022-12-18T05:30:34;3.15;;;2.85;;
47353;SDS011;50657;48.830;2.282;2022-12-18T05:33:01;2.83;;;2.60;;
47353;SDS011;50657;48.830;2.282;2022-12-18T05:35:28;5.55;;;2.80;;
47353;SDS011;50657;48.830;2.282;2022-12-18T05:37:56;5.30;;;3.13;;
47353;SDS011;50657;48.830;2.282;2022-12-18T05:40:23;5.20;;;3.28;;
47353;SDS011;50657;48.830;2.282;2022-12-18T05:42:50;4.35;;;3.63;;
47353;SDS011;50657;48.830;2.282;2022-12-18T05:45:17;3.75;;;2.30;;
47353;SDS011;50657;48.830;2.282;2022-12-18T05:47:45;3.08;;;2.67;;
47353;SDS011;50657;48.830;2.282;2022-12-18T05:50:12;3.95;;;2.70;;
47353;SDS011;50657;48.830;2.282;2022-12-18T05:52:39;4.20;;;3.08;;
47353;SDS011;50657;48.830;2.282;2022-12-18T05:55:08;5.32;;;3.15;;
47353;SDS011;50657;48.830;2.282;2022-12-18T05:57:35;3.42;;;2.80;;
47353;SDS011;50657;48.830;2.282;2022-12-18T06:00:02;5.28;;;2.60;;
47353;SDS011;50657;48.830;2.282;2022-12-18T06:02:37;3.83;;;2.72;;
47353;SDS011;50657;48.830;2.282;2022-12-18T06:05:05;4.03;;;1.90;;
47353;SDS011;50657;48.830;2.282;2022-12-18T06:07:32;2.60;;;2.40;;
47353;SDS011;50657;48.830;2.282;2022-12-18T06:09:59;4.28;;;2.63;;
47353;SDS011;50657;48.830;2.282;2022-12-18T06:12:28;4.28;;;2.90;;
47353;SDS011;50657;48.830;2.282;2022-12-18T06:14:55;3.75;;;2.35;;
47353;SDS011;50657;48.830;2.282;2022-12-18T06:17:22;5.35;;;2.53;;
47353;SDS011;50657;48.830;2.282;2022-12-18T06:19:49;3.40;;;2.33;;
47353;SDS011;50657;48.830;2.282;2022-12-18T06:22:16;2.33;;;1.83;;
47353;SDS011;50657;48.830;2.282;2022-12-18T06:24:43;3.13;;;2.50;;
47353;SDS011;50657;48.830;2.282;2022-12-18T06:27:10;3.40;;;2.65;;
47353;SDS011;50657;48.830;2.282;2022-12-18T06:29:38;3.17;;;2.28;;
47353;SDS011;50657;48.830;2.282;2022-12-18T06:32:05;4.68;;;3.63;;
47353;SDS011;50657;48.830;2.282;2022-12-18T06:34:32;2.63;;;2.22;;
47353;SDS011;50657;48.830;2.282;2022-12-18T06:37:00;2.33;;;2.00;;
47353;SDS011;50657;48.830;2.282;2022-12-18T06:39:27;4.10;;;1.70;;
47353;SDS011;50657;48.830;2.282;2022-12-18T06:41:54;4.60;;;2.25;;
47353;SDS011;50657;48.830;2.282;2022-12-18T06:44:21;2.45;;;2.25;;
47353;SDS011;50657;48.830;2.282;2022-12-18T06:46:50;4.53;;;1.95;;
47353;SDS011;50657;48.830;2.282;2022-12-18T06:49:17;5.57;;;2.58;;
47353;SDS011;50657;48.830;2.282;2022-12-18T06:51:44;3.00;;;2.17;;
47353;SDS011;50657;48.830;2.282;2022-12-18T06:54:11;5.80;;;2.75;;
47353;SDS011;50657;48.830;2.282;2022-12-18T06:56:39;2.08;;;1.83;;
47353;SDS011;50657;48.830;2.282;2022-12-18T06:59:06;4.88;;;3.28;;
47353;SDS011;50657;48.830;2.282;2022-12-18T07:01:33;3.45;;;2.90;;
47353;SDS011;50657;48.830;2.282;2022-12-18T07:04:01;3.35;;;3.03;;
47353;SDS011;50657;48.830;2.282;2022-12-18T07:06:28;2.45;;;2.25;;
47353;SDS011;50657;48.830;2.282;2022-12-18T07:08:55;3.70;;;2.85;;
47353;SDS011;50657;48.830;2.282;2022-12-18T07:11:22;4.63;;;2.97;;
47353;SDS011;50657;48.830;2.282;2022-12-18T07:13:50;3.22;;;2.45;;
47353;SDS011;50657;48.830;2.282;2022-12-18T07:16:19;3.55;;;2.83;;
47353;SDS011;50657;48.830;2.282;2022-12-18T07:18:47;2.83;;;2.60;;
47353;SDS011;50657;48.830;2.282;2022-12-18T07:21:18;4.80;;;3.08;;
47353;SDS011;50657;48.830;2.282;2022-12-18T07:23:45;3.30;;;2.67;;
47353;SDS011;50657;48.830;2.282;2022-12-18T07:26:13;2.58;;;2.25;;
47353;SDS011;50657;48.830;2.282;2022-12-18T07:28:42;3.55;;;2.67;;
47353;SDS011;50657;48.830;2.282;2022-12-18T07:31:10;2.38;;;1.83;;
47353;SDS011;50657;48.830;2.282;2022-12-18T07:33:39;2.10;;;2.00;;
47353;SDS011;50657;48.830;2.282;2022-12-18T07:36:07;3.17;;;2.70;;
47353;SDS011;50657;48.830;2.282;2022-12-18T07:38:38;2.42;;;2.22;;
47353;SDS011;50657;48.830;2.282;2022-12-18T07:41:06;3.38;;;2.17;;
47353;SDS011;50657;48.830;2.282;2022-12-18T07:43:35;4.68;;;1.83;;
47353;SDS011;50657;48.830;2.282;2022-12-18T07:46:03;3.65;;;2.78;;
47353;SDS011;50657;48.830;2.282;2022-12-18T07:48:30;3.67;;;2.45;;
47353;SDS011;50657;48.830;2.282;2022-12-18T07:50:58;3.28;;;2.75;;
47353;SDS011;50657;48.830;2.282;2022-12-18T07:53:25;7.85;;;3.85;;
47353;SDS011;50657;48.830;2.282;2022-12-18T07:55:56;3.67;;;2.05;;
47353;SDS011;50657;48.830;2.282;2022-12-18T07:58:23;5.25;;;2.35;;
47353;SDS011;50657;48.830;2.282;2022-12-18T08:00:50;2.85;;;2.50;;
47353;SDS011;50657;48.830;2.282;2022-12-18T08:03:18;3.97;;;2.63;;
47353;SDS011;50657;48.830;2.282;2022-12-18T08:05:46;3.58;;;2.20;;
47353;SDS011;50657;48.830;2.282;2022-12-18T08:08:13;2.80;;;2.28;;
47353;SDS011;50657;48.830;2.282;2022-12-18T08:10:40;5.25;;;2.50;;
47353;SDS011;50657;48.830;2.282;2022-12-18T08:13:08;3.70;;;2.53;;
47353;SDS011;50657;48.830;2.282;2022-12-18T08:15:35;3.42;;;1.95;;
47353;SDS011;50657;48.830;2.282;2022-12-18T08:18:02;4.20;;;1.83;;
47353;SDS011;50657;48.830;2.282;2022-12-18T08:20:29;2.72;;;2.20;;
47353;SDS011;50657;48.830;2.282;2022-12-18T08:22:56;5.38;;;2.67;;
47353;SDS011;50657;48.830;2.282;2022-12-18T08:25:23;2.17;;;2.00;;
47353;SDS011;50657;48.830;2.282;2022-12-18T08:27:50;2.88;;;2.58;;
47353;SDS011;50657;48.830;2.282;2022-12-18T08:30:19;3.50;;;2.20;;
47353;SDS011;50657;48.830;2.282;2022-12-18T08:32:46;4.60;;;2.72;;
47353;SDS011;50657;48.830;2.282;2022-12-18T08:35:14;3.50;;;3.10;;
47353;SDS011;50657;48.830;2.282;2022-12-18T08:37:41;3.33;;;2.60;;
47353;SDS011;50657;48.830;2.282;2022-12-18T08:40:09;5.30;;;3.55;;
47353;SDS011;50657;48.830;2.282;2022-12-18T08:42:38;5.55;;;3.20;;
47353;SDS011;50657;48.830;2.282;2022-12-18T08:45:38;3.55;;;2.30;;
47353;SDS011;50657;48.830;2.282;2022-12-18T08:48:05;4.25;;;1.92;;
47353;SDS011;50657;48.830;2.282;2022-12-18T08:50:32;5.90;;;3.03;;
47353;SDS011;50657;48.830;2.282;2022-12-18T08:52:59;3.10;;;2.42;;
47353;SDS011;50657;48.830;2.282;2022-12-18T08:55:27;2.95;;;2.05;;
47353;SDS011;50657;48.830;2.282;2022-12-18T08:57:54;4.63;;;2.75;;
47353;SDS011;50657;48.830;2.282;2022-12-18T09:00:21;7.55;;;3.15;;
47353;SDS011;50657;48.830;2.282;2022-12-18T09:02:49;3.50;;;2.33;;
47353;SDS011;50657;48.830;2.282;2022-12-18T09:05:16;5.97;;;2.85;;
47353;SDS011;50657;48.830;2.282;2022-12-18T09:07:43;3.80;;;2.88;;
47353;SDS011;50657;48.830;2.282;2022-12-18T09:10:10;5.10;;;2.42;;
47353;SDS011;50657;48.830;2.282;2022-12-18T09:12:37;5.30;;;3.58;;
47353;SDS011;50657;48.830;2.282;2022-12-18T09:15:05;6.57;;;2.67;;
47353;SDS011;50657;48.830;2.282;2022-12-18T09:17:32;4.60;;;2.63;;
47353;SDS011;50657;48.830;2.282;2022-12-18T09:20:01;3.70;;;2.60;;
47353;SDS011;50657;48.830;2.282;2022-12-18T09:22:28;6.75;;;3.15;;
47353;SDS011;50657;48.830;2.282;2022-12-18T09:24:55;4.03;;;3.38;;
47353;SDS011;50657;48.830;2.282;2022-12-18T09:27:22;5.40;;;3.25;;
47353;SDS011;50657;48.830;2.282;2022-12-18T09:29:49;8.38;;;3.67;;
47353;SDS011;50657;48.830;2.282;2022-12-18T09:32:16;7.22;;;3.53;;
47353;SDS011;50657;48.830;2.282;2022-12-18T09:34:43;4.82;;;4.03;;
47353;SDS011;50657;48.830;2.282;2022-12-18T09:37:11;10.13;;;3.92;;
47353;SDS011;50657;48.830;2.282;2022-12-18T09:39:38;7.53;;;4.45;;
47353;SDS011;50657;48.830;2.282;2022-12-18T09:42:06;11.68;;;4.30;;
47353;SDS011;50657;48.830;2.282;2022-12-18T09:44:41;5.43;;;4.20;;
47353;SDS011;50657;48.830;2.282;2022-12-18T09:47:12;4.47;;;3.50;;
47353;SDS011;50657;48.830;2.282;2022-12-18T09:49:44;8.32;;;4.70;;
47353;SDS011;50657;48.830;2.282;2022-12-18T09:52:16;8.07;;;4.30;;
47353;SDS011;50657;48.830;2.282;2022-12-18T09:54:46;6.70;;;4.45;;
47353;SDS011;50657;48.830;2.282;2022-12-18T09:57:19;6.53;;;2.85;;
47353;SDS011;50657;48.830;2.282;2022-12-18T09:59:50;8.73;;;4.10;;
47353;SDS011;50657;48.830;2.282;2022-12-18T10:02:21;8.32;;;3.42;;
47353;SDS011;50657;48.830;2.282;2022-12-18T10:04:53;9.18;;;3.97;;
47353;SDS011;50657;48.830;2.282;2022-12-18T10:07:36;7.32;;;3.95;;
47353;SDS011;50657;48.830;2.282;2022-12-18T10:10:18;11.77;;;4.20;;
47353;SDS011;50657;48.830;2.282;2022-12-18T10:12:54;4.95;;;3.42;;
47353;SDS011;50657;48.830;2.282;2022-12-18T10:15:30;6.10;;;3.55;;
47353;SDS011;50657;48.830;2.282;2022-12-18T10:18:05;9.43;;;2.65;;
47353;SDS011;50657;48.830;2.282;2022-12-18T10:20:45;8.75;;;3.42;;
47353;SDS011;50657;48.830;2.282;2022-12-18T10:23:17;7.80;;;4.65;;
47353;SDS011;50657;48.830;2.282;2022-12-18T10:25:53;10.68;;;3.78;;
47353;SDS011;50657;48.830;2.282;2022-12-18T10:28:22;6.68;;;3.60;;
47353;SDS011;50657;48.830;2.282;2022-12-18T10:30:51;8.57;;;4.15;;
47353;SDS011;50657;48.830;2.282;2022-12-18T10:33:19;4.88;;;3.95;;
47353;SDS011;50657;48.830;2.282;2022-12-18T10:35:51;10.27;;;3.92;;
47353;SDS011;50657;48.830;2.282;2022-12-18T10:38:23;5.70;;;2.92;;
47353;SDS011;50657;48.830;2.282;2022-12-18T10:40:53;6.00;;;3.40;;
47353;SDS011;50657;48.830;2.282;2022-12-18T10:43:23;4.72;;;3.30;;
47353;SDS011;50657;48.830;2.282;2022-12-18T10:48:48;6.45;;;4.38;;
47353;SDS011;50657;48.830;2.282;2022-12-18T10:51:20;8.45;;;4.00;;
47353;SDS011;50657;48.830;2.282;2022-12-18T10:53:55;5.53;;;3.17;;
47353;SDS011;50657;48.830;2.282;2022-12-18T10:56:26;8.77;;;4.10;;
47353;SDS011;50657;48.830;2.282;2022-12-18T10:58:55;4.43;;;3.40;;
47353;SDS011;50657;48.830;2.282;2022-12-18T11:01:25;5.82;;;4.90;;
47353;SDS011;50657;48.830;2.282;2022-12-18T11:04:00;7.63;;;3.78;;
47353;SDS011;50657;48.830;2.282;2022-12-18T11:06:28;10.88;;;4.05;;
47353;SDS011;50657;48.830;2.282;2022-12-18T11:09:00;7.97;;;4.18;;
47353;SDS011;50657;48.830;2.282;2022-12-18T11:11:29;7.25;;;3.35;;
47353;SDS011;50657;48.830;2.282;2022-12-18T11:13:59;8.02;;;5.47;;
47353;SDS011;50657;48.830;2.282;2022-12-18T11:16:29;8.50;;;4.47;;
47353;SDS011;50657;48.830;2.282;2022-12-18T11:19:17;5.43;;;4.50;;
47353;SDS011;50657;48.830;2.282;2022-12-18T11:21:50;6.63;;;3.50;;
47353;SDS011;50657;48.830;2.282;2022-12-18T11:24:20;7.10;;;4.57;;
47353;SDS011;50657;48.830;2.282;2022-12-18T11:26:53;5.78;;;3.88;;
47353;SDS011;50657;48.830;2.282;2022-12-18T11:29:22;6.50;;;4.00;;
47353;SDS011;50657;48.830;2.282;2022-12-18T11:31:57;7.45;;;4.65;;
47353;SDS011;50657;48.830;2.282;2022-12-18T11:35:01;6.68;;;4.28;;
47353;SDS011;50657;48.830;2.282;2022-12-18T11:37:36;6.00;;;4.30;;
47353;SDS011;50657;48.830;2.282;2022-12-18T11:40:09;5.72;;;4.35;;
47353;SDS011;50657;48.830;2.282;2022-12-18T11:42:41;5.63;;;4.53;;
47353;SDS011;50657;48.830;2.282;2022-12-18T11:45:20;6.45;;;4.97;;
47353;SDS011;50657;48.830;2.282;2022-12-18T11:47:52;5.45;;;4.35;;
47353;SDS011;50657;48.830;2.282;2022-12-18T11:50:24;7.60;;;4.95;;
47353;SDS011;50657;48.830;2.282;2022-12-18T11:52:54;11.13;;;5.30;;
47353;SDS011;50657;48.830;2.282;2022-12-18T11:55:26;8.75;;;5.30;;
47353;SDS011;50657;48.830;2.282;2022-12-18T11:58:01;6.75;;;4.30;;
47353;SDS011;50657;48.830;2.282;2022-12-18T12:00:34;6.45;;;4.25;;
47353;SDS011;50657;48.830;2.282;2022-12-18T12:03:09;7.13;;;4.60;;
47353;SDS011;50657;48.830;2.282;2022-12-18T12:05:51;6.88;;;5.05;;
47353;SDS011;50657;48.830;2.282;2022-12-18T12:08:35;6.85;;;4.20;;
47353;SDS011;50657;48.830;2.282;2022-12-18T12:11:13;5.65;;;4.68;;
47353;SDS011;50657;48.830;2.282;2022-12-18T12:13:48;7.72;;;5.00;;
47353;SDS011;50657;48.830;2.282;2022-12-18T12:16:22;5.63;;;4.25;;
47353;SDS011;50657;48.830;2.282;2022-12-18T12:19:01;8.60;;;4.68;;
47353;SDS011;50657;48.830;2.282;2022-12-18T12:21:42;6.22;;;4.53;;
47353;SDS011;50657;48.830;2.282;2022-12-18T12:24:18;9.15;;;5.28;;
47353;SDS011;50657;48.830;2.282;2022-12-18T12:26:59;6.22;;;4.13;;
47353;SDS011;50657;48.830;2.282;2022-12-18T12:29:39;5.65;;;4.38;;
47353;SDS011;50657;48.830;2.282;2022-12-18T12:32:20;9.75;;;5.50;;
47353;SDS011;50657;48.830;2.282;2022-12-18T12:35:01;6.05;;;4.57;;
47353;SDS011;50657;48.830;2.282;2022-12-18T12:37:38;6.25;;;5.18;;
47353;SDS011;50657;48.830;2.282;2022-12-18T12:40:21;6.25;;;4.28;;
47353;SDS011;50657;48.830;2.282;2022-12-18T12:42:54;7.40;;;4.80;;
47353;SDS011;50657;48.830;2.282;2022-12-18T12:45:40;7.05;;;4.82;;
47353;SDS011;50657;48.830;2.282;2022-12-18T12:48:16;7.88;;;4.18;;
47353;SDS011;50657;48.830;2.282;2022-12-18T12:50:47;8.48;;;4.43;;
47353;SDS011;50657;48.830;2.282;2022-12-18T12:53:19;5.30;;;4.30;;
47353;SDS011;50657;48.830;2.282;2022-12-18T12:55:51;8.82;;;4.93;;
47353;SDS011;50657;48.830;2.282;2022-12-18T12:58:25;12.65;;;4.75;;
47353;SDS011;50657;48.830;2.282;2022-12-18T13:01:00;7.78;;;5.35;;
47353;SDS011;50657;48.830;2.282;2022-12-18T13:03:35;6.78;;;4.82;;
47353;SDS011;50657;48.830;2.282;2022-12-18T13:06:12;6.30;;;4.40;;
47353;SDS011;50657;48.830;2.282;2022-12-18T13:08:52;4.82;;;4.38;;
47353;SDS011;50657;48.830;2.282;2022-12-18T13:14:28;6.13;;;4.60;;
47353;SDS011;50657;48.830;2.282;2022-12-18T13:20:08;10.10;;;5.22;;
47353;SDS011;50657;48.830;2.282;2022-12-18T13:22:37;6.97;;;5.22;;
47353;SDS011;50657;48.830;2.282;2022-12-18T13:27:59;5.68;;;5.00;;
47353;SDS011;50657;48.830;2.282;2022-12-18T13:30:51;7.00;;;4.80;;
47353;SDS011;50657;48.830;2.282;2022-12-18T13:36:16;7.38;;;4.85;;
47353;SDS011;50657;48.830;2.282;2022-12-18T13:39:15;6.07;;;4.95;;
47353;SDS011;50657;48.830;2.282;2022-12-18T13:41:52;6.68;;;4.63;;
47353;SDS011;50657;48.830;2.282;2022-12-18T13:44:23;7.75;;;4.85;;
47353;SDS011;50657;48.830;2.282;2022-12-18T13:46:56;7.25;;;4.03;;
47353;SDS011;50657;48.830;2.282;2022-12-18T13:49:25;7.55;;;5.57;;
47353;SDS011;50657;48.830;2.282;2022-12-18T13:51:57;6.10;;;4.47;;
47353;SDS011;50657;48.830;2.282;2022-12-18T13:54:25;5.88;;;4.32;;
47353;SDS011;50657;48.830;2.282;2022-12-18T13:56:59;8.48;;;5.38;;
47353;SDS011;50657;48.830;2.282;2022-12-18T13:59:26;7.88;;;4.47;;
47353;SDS011;50657;48.830;2.282;2022-12-18T14:02:07;8.27;;;5.65;;
47353;SDS011;50657;48.830;2.282;2022-12-18T14:04:40;7.85;;;5.00;;
47353;SDS011;50657;48.830;2.282;2022-12-18T14:07:09;7.40;;;5.18;;
47353;SDS011;50657;48.830;2.282;2022-12-18T14:09:39;7.78;;;4.93;;
47353;SDS011;50657;48.830;2.282;2022-12-18T14:12:12;7.05;;;4.85;;
47353;SDS011;50657;48.830;2.282;2022-12-18T14:14:59;7.30;;;4.68;;
47353;SDS011;50657;48.830;2.282;2022-12-18T14:17:28;7.68;;;5.38;;
47353;SDS011;50657;48.830;2.282;2022-12-18T14:19:57;5.63;;;4.50;;
47353;SDS011;50657;48.830;2.282;2022-12-18T14:22:24;6.78;;;5.07;;
47353;SDS011;50657;48.830;2.282;2022-12-18T14:27:50;10.52;;;5.13;;
47353;SDS011;50657;48.830;2.282;2022-12-18T14:30:25;7.43;;;4.13;;
47353;SDS011;50657;48.830;2.282;2022-12-18T14:33:05;8.38;;;3.65;;
47353;SDS011;50657;48.830;2.282;2022-12-18T14:35:38;6.53;;;4.10;;
47353;SDS011;50657;48.830;2.282;2022-12-18T14:38:10;8.57;;;4.45;;
47353;SDS011;50657;48.830;2.282;2022-12-18T14:40:44;8.02;;;5.13;;
47353;SDS011;50657;48.830;2.282;2022-12-18T14:43:11;6.15;;;4.45;;
47353;SDS011;50657;48.830;2.282;2022-12-18T14:45:39;12.88;;;5.93;;
47353;SDS011;50657;48.830;2.282;2022-12-18T14:48:13;5.22;;;3.95;;
47353;SDS011;50657;48.830;2.282;2022-12-18T14:50:42;8.43;;;4.60;;
47353;SDS011;50657;48.830;2.282;2022-12-18T14:53:18;9.32;;;4.30;;
47353;SDS011;50657;48.830;2.282;2022-12-18T14:55:47;8.90;;;5.05;;
47353;SDS011;50657;48.830;2.282;2022-12-18T14:58:15;6.00;;;4.25;;
47353;SDS011;50657;48.830;2.282;2022-12-18T15:00:43;10.77;;;5.40;;
47353;SDS011;50657;48.830;2.282;2022-12-18T15:03:13;7.50;;;5.03;;
47353;SDS011;50657;48.830;2.282;2022-12-18T15:05:45;8.40;;;4.95;;
47353;SDS011;50657;48.830;2.282;2022-12-18T15:08:30;7.47;;;4.78;;
47353;SDS011;50657;48.830;2.282;2022-12-18T15:11:00;13.30;;;5.70;;
47353;SDS011;50657;48.830;2.282;2022-12-18T15:13:28;7.75;;;5.90;;
47353;SDS011;50657;48.830;2.282;2022-12-18T15:15:55;6.53;;;4.90;;
47353;SDS011;50657;48.830;2.282;2022-12-18T15:18:27;7.85;;;5.15;;
47353;SDS011;50657;48.830;2.282;2022-12-18T15:20:57;7.93;;;5.82;;
47353;SDS011;50657;48.830;2.282;2022-12-18T15:23:35;10.30;;;6.38;;
47353;SDS011;50657;48.830;2.282;2022-12-18T15:26:12;11.60;;;6.25;;
47353;SDS011;50657;48.830;2.282;2022-12-18T15:28:43;12.05;;;7.40;;
47353;SDS011;50657;48.830;2.282;2022-12-18T15:31:22;12.63;;;6.03;;
47353;SDS011;50657;48.830;2.282;2022-12-18T15:34:05;10.35;;;6.18;;